Colusa, California
Current Conditions -  °F | °C
As of 1:53 AM on Saturday 25 Oct 2014 (Local Time) from KMYV Reporting Station
Scattered Clouds Scattered Clouds  
Wind Chill: 60°   Ceiling: Unl
Heat Index: 60°   Visibility: 10mi
Dew Point: 54°   Wind: 12mph
Humidity: 80%   Direction: 130°SE
Pressure: 29.92"   Gusts: NA
Location:  39.21°N, 122.01°W
Report Text: KMYV 250853Z AUTO 13010KT 10SM SCT049 16/12 A2992 RMK AO2 SLP134 T01560122 51011 $
Loading
Personal Weather Stations






























Interactive Weather Map
Tropical Storm Tracking
New forecast layout! Learn more

10-Day Weather Forecast

Advertisements
Track Severe Weather on mobile